createdAt,value
2022-11-09T00:00:47.507Z,68.59
2022-11-09T00:01:48.013Z,68.49
2022-11-09T00:02:47.515Z,68.59
2022-11-09T00:03:47.495Z,68.59
2022-11-09T00:04:47.461Z,68.79
2022-11-09T00:05:47.429Z,68.79
2022-11-09T00:06:48.378Z,69.00
2022-11-09T00:07:47.487Z,68.90
2022-11-09T00:08:48.373Z,69.10
2022-11-09T00:09:47.406Z,69.00
2022-11-09T00:10:47.372Z,69.13
2022-11-09T00:11:47.390Z,69.23
2022-11-09T00:12:47.349Z,69.34
2022-11-09T00:13:47.348Z,69.43
2022-11-09T00:14:47.357Z,69.43
2022-11-09T00:15:47.307Z,69.13
2022-11-09T00:16:47.310Z,69.00
2022-11-09T00:17:47.501Z,69.20
2022-11-09T00:18:47.297Z,69.20
2022-11-09T00:19:47.281Z,69.20
2022-11-09T00:20:48.726Z,69.20
2022-11-09T00:21:47.231Z,69.10
2022-11-09T00:22:47.270Z,69.20
2022-11-09T00:23:47.242Z,69.30
2022-11-09T00:24:47.211Z,69.30
2022-11-09T00:25:47.178Z,69.40
2022-11-09T00:26:47.264Z,69.30
2022-11-09T00:27:47.504Z,69.30
2022-11-09T00:28:47.233Z,69.20
2022-11-09T00:29:47.163Z,69.30
2022-11-09T00:30:47.140Z,69.20
2022-11-09T00:31:47.116Z,69.40
2022-11-09T00:32:47.095Z,69.30
2022-11-09T00:33:48.014Z,69.20
2022-11-09T00:34:47.075Z,69.20
2022-11-09T00:35:47.073Z,69.40
2022-11-09T00:36:47.088Z,69.30
2022-11-09T00:37:47.118Z,69.20
2022-11-09T00:38:47.066Z,69.20
2022-11-09T00:39:47.016Z,69.20
2022-11-09T00:40:46.995Z,69.20
2022-11-09T00:41:46.969Z,69.30
2022-11-09T00:42:47.007Z,69.40
2022-11-09T00:43:47.919Z,69.40
2022-11-09T00:44:47.007Z,69.71
2022-11-09T00:45:46.915Z,69.60
2022-11-09T00:46:47.794Z,69.60
2022-11-09T00:47:46.923Z,69.81
2022-11-09T00:48:46.889Z,69.71
2022-11-09T00:49:46.907Z,69.81
2022-11-09T00:50:46.880Z,69.81
2022-11-09T00:51:46.847Z,70.01
2022-11-09T00:52:47.077Z,69.81
2022-11-09T00:53:46.810Z,69.81
2022-11-09T00:54:46.796Z,69.81
2022-11-09T00:55:46.879Z,69.71
2022-11-09T00:56:46.805Z,69.81
2022-11-09T00:57:46.778Z,69.71
2022-11-09T00:58:47.371Z,69.81
2022-11-09T00:59:46.777Z,69.91
2022-11-09T01:00:46.782Z,69.81
2022-11-09T01:01:46.705Z,70.01
2022-11-09T01:02:46.689Z,69.91
2022-11-09T01:03:46.699Z,70.04
2022-11-09T01:04:46.658Z,70.15
2022-11-09T01:05:46.823Z,70.45
2022-11-09T01:06:48.209Z,70.45
2022-11-09T01:07:46.734Z,70.65
2022-11-09T01:08:46.685Z,70.76
2022-11-09T01:09:46.615Z,70.65
2022-11-09T01:10:46.661Z,70.86
2022-11-09T01:11:46.655Z,70.99
2022-11-09T01:12:46.585Z,71.09
2022-11-09T01:13:46.538Z,71.40
2022-11-09T01:14:46.526Z,71.50
2022-11-09T01:15:46.527Z,71.80
2022-11-09T01:16:47.337Z,71.94
2022-11-09T01:17:46.539Z,71.94
2022-11-09T01:18:46.903Z,72.14
2022-11-09T01:19:46.459Z,72.34
2022-11-09T01:20:46.450Z,72.34
2022-11-09T01:21:46.479Z,72.34
2022-11-09T01:22:46.517Z,72.25
2022-11-09T01:23:46.479Z,72.14
2022-11-09T01:24:47.216Z,72.14
2022-11-09T01:25:46.412Z,72.25
2022-11-09T01:26:46.632Z,72.25
2022-11-09T01:27:46.420Z,72.25
2022-11-09T01:28:46.456Z,72.45
2022-11-09T01:29:46.341Z,72.45
2022-11-09T01:30:46.351Z,72.45
2022-11-09T01:31:46.366Z,72.55
2022-11-09T01:32:46.350Z,72.55
2022-11-09T01:33:46.363Z,72.45
2022-11-09T01:34:46.283Z,72.55
2022-11-09T01:35:46.249Z,72.75
2022-11-09T01:36:46.251Z,72.75
2022-11-09T01:37:47.502Z,72.85
2022-11-09T01:38:46.283Z,73.06
2022-11-09T01:39:46.351Z,73.06
2022-11-09T01:40:46.187Z,73.06
2022-11-09T01:41:46.205Z,72.96
2022-11-09T01:42:46.164Z,73.06
2022-11-09T01:43:46.175Z,72.96
2022-11-09T01:44:46.143Z,72.96
2022-11-09T01:45:46.136Z,72.96
2022-11-09T01:46:47.152Z,72.96
2022-11-09T01:47:46.200Z,72.96
2022-11-09T01:48:46.457Z,72.96
2022-11-09T01:49:47.048Z,73.06
2022-11-09T01:50:46.118Z,73.06
2022-11-09T01:51:46.064Z,73.16
2022-11-09T01:52:46.089Z,73.16
2022-11-09T01:53:46.045Z,72.96
2022-11-09T01:54:46.081Z,72.92
2022-11-09T01:55:46.032Z,72.82
2022-11-09T01:56:45.997Z,72.92
2022-11-09T01:57:46.000Z,72.92
2022-11-09T01:58:45.948Z,73.02
2022-11-09T01:59:46.007Z,73.16
2022-11-09T02:00:46.031Z,73.26
2022-11-09T02:01:46.051Z,73.46
2022-11-09T02:02:45.977Z,73.46
2022-11-09T02:03:45.907Z,73.57
2022-11-09T02:04:45.919Z,73.67
2022-11-09T02:05:45.881Z,73.57
2022-11-09T02:06:46.141Z,73.57
2022-11-09T02:07:45.867Z,73.46
2022-11-09T02:08:47.087Z,73.67
2022-11-09T02:09:46.993Z,73.57
2022-11-09T02:10:45.835Z,73.57
2022-11-09T02:11:45.851Z,73.53
2022-11-09T02:12:45.800Z,73.43
2022-11-09T02:13:45.763Z,73.43
2022-11-09T02:14:45.752Z,73.53
2022-11-09T02:15:46.931Z,73.53
2022-11-09T02:16:45.751Z,73.63
2022-11-09T02:17:45.852Z,73.53
2022-11-09T02:18:45.694Z,73.63
2022-11-09T02:19:45.691Z,73.87
2022-11-09T02:20:46.269Z,73.87
2022-11-09T02:21:45.702Z,73.87
2022-11-09T02:22:45.643Z,73.87
2022-11-09T02:23:45.641Z,73.87
2022-11-09T02:24:45.603Z,73.74
2022-11-09T02:25:45.637Z,73.63
2022-11-09T02:26:46.553Z,73.53
2022-11-09T02:27:45.835Z,73.53
2022-11-09T02:28:45.566Z,73.63
2022-11-09T02:29:45.566Z,73.74
2022-11-09T02:30:45.592Z,73.74
2022-11-09T02:31:45.515Z,73.94
2022-11-09T02:32:45.513Z,73.83
2022-11-09T02:33:45.506Z,73.94
2022-11-09T02:34:46.186Z,73.94
2022-11-09T02:35:45.500Z,73.83
2022-11-09T02:36:45.485Z,73.74
2022-11-09T02:37:45.606Z,73.63
2022-11-09T02:38:45.476Z,73.74
2022-11-09T02:39:45.426Z,73.74
2022-11-09T02:40:46.405Z,73.83
2022-11-09T02:41:45.386Z,73.74
2022-11-09T02:42:45.365Z,73.63
2022-11-09T02:43:45.386Z,73.83
2022-11-09T02:44:45.339Z,73.94
2022-11-09T02:45:45.351Z,73.94
2022-11-09T02:46:46.510Z,73.94
2022-11-09T02:47:45.318Z,73.94
2022-11-09T02:48:45.316Z,74.04
2022-11-09T02:49:45.284Z,74.04
2022-11-09T02:50:45.277Z,73.94
2022-11-09T02:51:45.262Z,73.94
2022-11-09T02:52:45.238Z,74.04
2022-11-09T02:53:45.242Z,74.04
2022-11-09T02:54:45.409Z,74.04
2022-11-09T02:55:45.281Z,74.14
2022-11-09T02:56:45.221Z,74.24
2022-11-09T02:57:45.178Z,74.34
2022-11-09T02:58:45.266Z,74.24
2022-11-09T02:59:45.192Z,74.34
2022-11-09T03:00:45.258Z,74.24
2022-11-09T03:01:45.208Z,74.34
2022-11-09T03:02:45.115Z,74.44
2022-11-09T03:03:45.090Z,74.44
2022-11-09T03:04:45.077Z,74.44
2022-11-09T03:05:45.111Z,74.44
2022-11-09T03:06:45.704Z,74.34
2022-11-09T03:07:45.156Z,74.34
2022-11-09T03:08:45.021Z,74.55
2022-11-09T03:09:45.006Z,74.55
2022-11-09T03:10:45.032Z,74.55
2022-11-09T03:11:45.015Z,74.65
2022-11-09T03:12:45.046Z,74.75
2022-11-09T03:13:44.957Z,74.75
2022-11-09T03:14:44.937Z,74.85
2022-11-09T03:15:44.937Z,74.95
2022-11-09T03:16:50.041Z,74.85
2022-11-09T03:17:45.966Z,74.95
2022-11-09T03:18:44.968Z,75.05
2022-11-09T03:19:44.888Z,74.95
2022-11-09T03:20:44.899Z,75.05
2022-11-09T03:21:44.915Z,75.16
2022-11-09T03:22:44.859Z,75.36
2022-11-09T03:23:44.879Z,75.26
2022-11-09T03:24:44.864Z,75.56
2022-11-09T03:25:44.871Z,75.67
2022-11-09T03:26:44.794Z,75.56
2022-11-09T03:27:44.803Z,75.76
2022-11-09T03:28:44.909Z,75.67
2022-11-09T03:29:44.800Z,75.67
2022-11-09T03:30:44.767Z,76.07
2022-11-09T03:31:45.140Z,75.76
2022-11-09T03:32:49.442Z,75.97
2022-11-09T03:33:45.751Z,75.56
2022-11-09T03:34:44.709Z,75.76
2022-11-09T03:35:44.679Z,75.67
2022-11-09T03:36:44.718Z,75.56
2022-11-09T03:37:44.715Z,75.26
2022-11-09T03:38:44.698Z,75.43
2022-11-09T03:39:44.673Z,75.26
2022-11-09T03:40:44.635Z,75.36
2022-11-09T03:41:44.614Z,75.46
2022-11-09T03:42:44.594Z,75.16
2022-11-09T03:43:44.616Z,75.26
2022-11-09T03:44:45.546Z,75.16
2022-11-09T03:45:44.588Z,75.16
2022-11-09T03:46:44.542Z,74.95
2022-11-09T03:47:44.512Z,74.95
2022-11-09T03:48:44.491Z,75.05
2022-11-09T03:49:44.515Z,74.95
2022-11-09T03:50:44.503Z,74.95
2022-11-09T03:51:44.453Z,74.85
2022-11-09T03:52:44.472Z,74.75
2022-11-09T03:53:44.465Z,74.85
2022-11-09T03:54:44.508Z,74.95
2022-11-09T03:55:44.426Z,74.95
2022-11-09T03:56:44.439Z,74.75
2022-11-09T03:57:44.458Z,74.82
2022-11-09T03:58:44.579Z,74.71
2022-11-09T03:59:44.467Z,74.62
2022-11-09T04:00:44.387Z,74.62
2022-11-09T04:01:44.386Z,74.51
2022-11-09T04:02:44.324Z,74.51
2022-11-09T04:03:44.348Z,74.62
2022-11-09T04:04:44.326Z,74.65
2022-11-09T04:05:44.367Z,74.85
2022-11-09T04:06:44.446Z,74.85
2022-11-09T04:07:44.250Z,74.71
2022-11-09T04:08:49.929Z,74.71
2022-11-09T04:09:45.270Z,75.12
2022-11-09T04:10:44.298Z,75.12
2022-11-09T04:11:44.273Z,75.63
2022-11-09T04:12:44.270Z,75.83
2022-11-09T04:13:44.175Z,76.03
2022-11-09T04:14:44.293Z,76.03
2022-11-09T04:15:44.213Z,75.93
2022-11-09T04:16:44.274Z,75.87
2022-11-09T04:17:44.183Z,75.87
2022-11-09T04:18:44.135Z,75.76
2022-11-09T04:19:44.110Z,75.87
2022-11-09T04:20:44.163Z,75.87
2022-11-09T04:21:44.090Z,75.97
2022-11-09T04:22:45.057Z,76.07
2022-11-09T04:23:44.062Z,75.87
2022-11-09T04:24:44.034Z,75.87
2022-11-09T04:25:44.026Z,75.97
2022-11-09T04:26:44.054Z,75.97
2022-11-09T04:27:44.016Z,75.87
2022-11-09T04:28:44.802Z,75.87
2022-11-09T04:29:43.985Z,75.97
2022-11-09T04:30:44.135Z,75.87
2022-11-09T04:31:43.949Z,76.07
2022-11-09T04:32:44.016Z,76.17
2022-11-09T04:33:43.954Z,76.17
2022-11-09T04:34:43.908Z,76.17
2022-11-09T04:35:43.927Z,76.07
2022-11-09T04:36:43.935Z,76.17
2022-11-09T04:37:43.928Z,76.28
2022-11-09T04:38:43.904Z,76.28
2022-11-09T04:39:43.864Z,76.37
2022-11-09T04:40:43.857Z,76.61
2022-11-09T04:41:43.821Z,76.72
2022-11-09T04:42:43.797Z,76.72
2022-11-09T04:43:43.918Z,76.72
2022-11-09T04:44:43.881Z,76.82
2022-11-09T04:45:43.783Z,76.82
2022-11-09T04:46:43.939Z,76.82
2022-11-09T04:47:43.900Z,76.82
2022-11-09T04:48:44.243Z,77.12
2022-11-09T04:49:43.788Z,77.12
2022-11-09T04:50:43.751Z,77.22
2022-11-09T04:51:43.692Z,77.33
2022-11-09T04:52:43.759Z,77.43
2022-11-09T04:53:43.777Z,77.63
2022-11-09T04:54:43.680Z,77.77
2022-11-09T04:55:43.666Z,77.97
2022-11-09T04:56:43.656Z,77.97
2022-11-09T04:57:43.602Z,78.28
2022-11-09T04:58:43.660Z,78.38
2022-11-09T04:59:43.618Z,78.58
2022-11-09T05:00:43.730Z,78.58
2022-11-09T05:01:43.544Z,78.78
2022-11-09T05:02:43.525Z,78.89
2022-11-09T05:03:43.594Z,78.89
2022-11-09T05:04:43.515Z,79.13
2022-11-09T05:05:48.132Z,79.23
2022-11-09T05:06:44.564Z,79.43
2022-11-09T05:07:43.555Z,79.43
2022-11-09T05:08:43.466Z,79.53
2022-11-09T05:09:43.477Z,79.50
2022-11-09T05:10:43.510Z,79.39
2022-11-09T05:11:43.508Z,79.39
2022-11-09T05:12:45.870Z,79.39
2022-11-09T05:13:43.416Z,79.39
2022-11-09T05:14:43.480Z,79.39
2022-11-09T05:15:43.431Z,79.63
2022-11-09T05:16:43.422Z,79.63
2022-11-09T05:17:43.468Z,80.04
2022-11-09T05:18:43.339Z,80.04
2022-11-09T05:19:44.117Z,80.15
2022-11-09T05:20:43.926Z,80.49
2022-11-09T05:21:43.308Z,80.79
2022-11-09T05:22:44.342Z,80.90
2022-11-09T05:23:43.274Z,80.79
2022-11-09T05:24:43.239Z,80.99
2022-11-09T05:25:43.250Z,81.10
2022-11-09T05:26:43.215Z,81.30
2022-11-09T05:27:43.333Z,81.40
2022-11-09T05:28:43.354Z,81.40
2022-11-09T05:29:44.181Z,81.51
2022-11-09T05:30:43.262Z,81.40
2022-11-09T05:31:46.514Z,81.40
2022-11-09T05:32:44.165Z,81.26
2022-11-09T05:33:43.149Z,81.16
2022-11-09T05:34:44.207Z,81.16
2022-11-09T05:35:44.108Z,81.16
2022-11-09T05:36:44.065Z,81.06
2022-11-09T05:37:43.150Z,81.16
2022-11-09T05:38:43.210Z,81.16
2022-11-09T05:39:43.099Z,81.16
2022-11-09T05:40:43.096Z,81.06
2022-11-09T05:41:43.023Z,81.16
2022-11-09T05:42:42.996Z,81.26
2022-11-09T05:43:43.054Z,81.46
2022-11-09T05:44:43.246Z,81.57
2022-11-09T05:45:44.099Z,81.77
2022-11-09T05:46:44.074Z,81.77
2022-11-09T05:47:42.966Z,81.98
2022-11-09T05:48:42.945Z,82.07
2022-11-09T05:49:43.014Z,82.42
2022-11-09T05:50:42.980Z,82.62
2022-11-09T05:51:44.123Z,82.59
2022-11-09T05:52:42.887Z,82.48
2022-11-09T05:53:46.422Z,82.38
2022-11-09T05:54:42.858Z,82.59
2022-11-09T05:55:42.870Z,82.59
2022-11-09T05:56:43.798Z,82.68
2022-11-09T05:57:42.857Z,82.79
2022-11-09T05:58:42.828Z,82.99
2022-11-09T05:59:42.829Z,83.20
2022-11-09T06:00:42.779Z,83.29
2022-11-09T06:01:43.709Z,83.40
2022-11-09T06:02:42.834Z,83.50
2022-11-09T06:03:42.748Z,83.70
2022-11-09T06:04:43.756Z,83.70
2022-11-09T06:05:42.983Z,83.70
2022-11-09T06:06:42.867Z,83.81
2022-11-09T06:07:42.700Z,83.81
2022-11-09T06:08:42.730Z,84.11
2022-11-09T06:09:42.683Z,84.01
2022-11-09T06:10:42.653Z,84.25
2022-11-09T06:11:42.674Z,84.45
2022-11-09T06:12:43.629Z,84.56
2022-11-09T06:13:42.645Z,84.76
2022-11-09T06:14:42.585Z,84.76
2022-11-09T06:15:42.587Z,84.86
2022-11-09T06:16:42.676Z,84.97
2022-11-09T06:17:43.668Z,84.97
2022-11-09T06:18:42.603Z,85.27
2022-11-09T06:19:42.521Z,85.37
2022-11-09T06:20:42.502Z,85.47
2022-11-09T06:21:42.660Z,85.58
2022-11-09T06:22:42.513Z,85.47
2022-11-09T06:23:42.532Z,85.58
2022-11-09T06:24:42.475Z,85.58
2022-11-09T06:25:42.459Z,85.47
2022-11-09T06:26:43.435Z,85.78
2022-11-09T06:27:42.465Z,85.88
2022-11-09T06:28:42.414Z,85.78
2022-11-09T06:29:42.448Z,85.78
2022-11-09T06:30:42.587Z,85.98
2022-11-09T06:31:42.373Z,86.08
2022-11-09T06:32:42.383Z,85.98
2022-11-09T06:33:42.376Z,86.19
2022-11-09T06:34:42.426Z,86.39
2022-11-09T06:35:43.470Z,86.29
2022-11-09T06:36:42.377Z,86.33
2022-11-09T06:37:43.249Z,86.63
2022-11-09T06:38:42.418Z,86.63
2022-11-09T06:39:43.308Z,86.63
2022-11-09T06:40:42.273Z,86.83
2022-11-09T06:41:47.238Z,86.83
2022-11-09T06:42:43.395Z,86.94
2022-11-09T06:43:42.889Z,87.04
2022-11-09T06:44:42.290Z,87.04
2022-11-09T06:45:42.220Z,87.04
2022-11-09T06:46:43.440Z,87.24
2022-11-09T06:47:43.342Z,87.20
2022-11-09T06:48:43.052Z,87.00
2022-11-09T06:49:42.210Z,87.00
2022-11-09T06:50:42.151Z,87.00
2022-11-09T06:51:42.171Z,87.00
2022-11-09T06:52:42.236Z,87.00
2022-11-09T06:53:42.110Z,87.00
2022-11-09T06:54:42.763Z,87.00
2022-11-09T06:55:45.823Z,87.00
2022-11-09T06:56:43.075Z,87.00
2022-11-09T06:57:42.062Z,87.20
2022-11-09T06:58:42.045Z,87.24
2022-11-09T06:59:42.536Z,87.35
2022-11-09T07:00:42.401Z,87.55
2022-11-09T07:01:42.008Z,87.65
2022-11-09T07:02:42.201Z,87.85
2022-11-09T07:03:41.982Z,87.96
2022-11-09T07:04:42.131Z,88.06
2022-11-09T07:05:42.228Z,87.96
2022-11-09T07:06:42.264Z,87.85
2022-11-09T07:07:42.958Z,87.75
2022-11-09T07:08:42.031Z,87.75
2022-11-09T07:09:41.898Z,87.65
2022-11-09T07:10:41.887Z,87.65
2022-11-09T07:11:42.534Z,87.51
2022-11-09T07:12:41.847Z,87.30
2022-11-09T07:13:42.006Z,87.30
2022-11-09T07:14:41.821Z,87.20
2022-11-09T07:15:42.707Z,87.10
2022-11-09T07:16:41.981Z,87.00
2022-11-09T07:17:41.831Z,86.90
2022-11-09T07:18:41.827Z,86.90
2022-11-09T07:19:41.742Z,86.90
2022-11-09T07:20:41.799Z,86.90
2022-11-09T07:21:41.764Z,86.80
2022-11-09T07:22:41.823Z,86.76
2022-11-09T07:23:41.788Z,86.65
2022-11-09T07:24:41.747Z,86.55
2022-11-09T07:25:41.786Z,86.55
2022-11-09T07:26:41.871Z,86.55
2022-11-09T07:27:41.707Z,86.45
2022-11-09T07:28:41.646Z,86.35
2022-11-09T07:29:42.894Z,86.25
2022-11-09T07:30:42.803Z,86.25
2022-11-09T07:31:41.709Z,86.25
2022-11-09T07:33:42.684Z,86.25
2022-11-09T07:34:41.589Z,86.25
2022-11-09T07:35:41.584Z,86.25
2022-11-09T07:36:42.734Z,86.25
2022-11-09T07:37:41.554Z,86.25
2022-11-09T07:38:42.285Z,86.35
2022-11-09T07:39:41.781Z,86.25
2022-11-09T07:40:41.519Z,86.10
2022-11-09T07:41:41.483Z,86.10
2022-11-09T07:42:41.523Z,86.10
2022-11-09T07:43:42.142Z,86.10
2022-11-09T07:44:41.547Z,86.10
2022-11-09T07:45:41.438Z,86.00
2022-11-09T07:46:41.788Z,86.10
2022-11-09T07:47:41.415Z,86.10
2022-11-09T07:48:42.436Z,86.00
2022-11-09T07:49:41.825Z,85.90
2022-11-09T07:50:42.411Z,85.90
2022-11-09T07:51:41.416Z,85.80
2022-11-09T07:52:42.228Z,85.80
2022-11-09T07:53:42.128Z,85.70
2022-11-09T07:54:41.523Z,85.70
2022-11-09T07:55:42.449Z,85.46
2022-11-09T07:56:41.279Z,85.35
2022-11-09T07:57:41.434Z,85.15
2022-11-09T07:58:41.268Z,85.15
2022-11-09T07:59:41.418Z,85.05
2022-11-09T08:00:41.468Z,84.95
2022-11-09T08:01:41.254Z,84.95
2022-11-09T08:02:41.392Z,84.91
2022-11-09T08:03:42.191Z,84.70
2022-11-09T08:04:42.101Z,84.70
2022-11-09T08:05:41.286Z,84.60
2022-11-09T08:06:41.216Z,84.40
2022-11-09T08:07:41.143Z,84.40
2022-11-09T08:08:41.312Z,84.20
2022-11-09T08:09:42.125Z,84.16
2022-11-09T08:10:41.531Z,84.05
2022-11-09T08:11:41.081Z,83.95
2022-11-09T08:12:41.231Z,83.95
2022-11-09T08:13:41.090Z,83.71
2022-11-09T08:14:41.090Z,83.61
2022-11-09T08:15:41.171Z,83.51
2022-11-09T08:16:41.093Z,83.31
2022-11-09T08:17:41.037Z,83.20
2022-11-09T08:18:41.015Z,83.00
2022-11-09T08:19:41.566Z,82.80
2022-11-09T08:20:41.686Z,82.70
2022-11-09T08:21:41.062Z,82.56
2022-11-09T08:22:41.902Z,82.45
2022-11-09T08:23:41.065Z,82.56
2022-11-09T08:24:40.943Z,82.56
2022-11-09T08:25:40.985Z,82.25
2022-11-09T08:26:40.893Z,82.15
2022-11-09T08:27:40.870Z,82.05
2022-11-09T08:28:41.037Z,82.05
2022-11-09T08:29:40.864Z,82.05
2022-11-09T08:30:41.664Z,81.85
2022-11-09T08:31:40.844Z,82.05
2022-11-09T08:32:41.135Z,81.91
2022-11-09T08:33:40.865Z,81.91
2022-11-09T08:34:40.878Z,81.91
2022-11-09T08:35:40.938Z,82.01
2022-11-09T08:36:40.827Z,82.01
2022-11-09T08:37:40.766Z,81.81
2022-11-09T08:38:40.750Z,81.81
2022-11-09T08:39:40.697Z,81.71
2022-11-09T08:40:40.814Z,81.50
2022-11-09T08:41:40.696Z,81.60
2022-11-09T08:42:40.746Z,81.71
2022-11-09T08:43:40.691Z,81.60
2022-11-09T08:44:40.702Z,81.50
2022-11-09T08:45:40.659Z,81.50
2022-11-09T08:46:41.713Z,81.50
2022-11-09T08:47:40.662Z,81.40
2022-11-09T08:48:40.863Z,81.30
2022-11-09T08:49:40.799Z,81.30
2022-11-09T08:50:40.550Z,81.30
2022-11-09T08:51:40.583Z,81.10
2022-11-09T08:52:40.643Z,81.10
2022-11-09T08:53:40.678Z,80.99
2022-11-09T08:54:41.513Z,80.96
2022-11-09T08:55:43.804Z,80.79
2022-11-09T08:56:40.675Z,80.79
2022-11-09T08:57:40.491Z,80.90
2022-11-09T08:58:40.468Z,80.99
2022-11-09T08:59:40.460Z,80.90
2022-11-09T09:00:40.444Z,80.86
2022-11-09T09:01:40.527Z,80.76
2022-11-09T09:02:40.482Z,80.86
2022-11-09T09:03:40.529Z,80.86
2022-11-09T09:04:40.447Z,80.86
2022-11-09T09:05:41.418Z,80.76
2022-11-09T09:06:40.745Z,80.65
2022-11-09T09:07:40.454Z,80.86
2022-11-09T09:08:40.383Z,80.65
2022-11-09T09:09:40.340Z,80.76
2022-11-09T09:10:41.392Z,80.76
2022-11-09T09:11:41.294Z,80.86
2022-11-09T09:12:40.418Z,80.86
2022-11-09T09:13:43.273Z,80.76
2022-11-09T09:14:41.521Z,80.76
2022-11-09T09:15:41.207Z,80.65
2022-11-09T09:16:41.321Z,80.55
2022-11-09T09:17:40.307Z,80.55
2022-11-09T09:18:40.250Z,80.55
2022-11-09T09:19:40.183Z,80.35
2022-11-09T09:20:40.194Z,80.31
2022-11-09T09:21:40.170Z,80.11
2022-11-09T09:22:41.272Z,80.01
2022-11-09T09:23:40.176Z,80.11
2022-11-09T09:24:40.130Z,79.91
2022-11-09T09:25:40.949Z,79.60
2022-11-09T09:26:40.428Z,79.50
2022-11-09T09:27:41.297Z,79.40
2022-11-09T09:28:40.106Z,79.40
2022-11-09T09:29:40.195Z,79.36
2022-11-09T09:30:40.118Z,79.26
2022-11-09T09:31:41.077Z,79.26
2022-11-09T09:32:40.313Z,79.36
2022-11-09T09:33:40.075Z,79.46
2022-11-09T09:34:39.991Z,79.40
2022-11-09T09:35:40.018Z,79.50
2022-11-09T09:36:46.281Z,79.60
2022-11-09T09:37:41.153Z,79.80
2022-11-09T09:38:39.938Z,79.91
2022-11-09T09:39:39.953Z,80.01
2022-11-09T09:40:40.915Z,80.21
2022-11-09T09:41:40.976Z,80.52
2022-11-09T09:42:39.894Z,80.76
2022-11-09T09:43:43.367Z,80.96
2022-11-09T09:44:39.925Z,81.37
2022-11-09T09:45:40.324Z,81.67
2022-11-09T09:46:40.997Z,81.97
2022-11-09T09:47:40.016Z,82.17
2022-11-09T09:48:39.820Z,82.68
2022-11-09T09:49:39.861Z,83.18
2022-11-09T09:50:39.815Z,84.81
2022-11-09T09:51:39.809Z,85.25
2022-11-09T09:52:40.940Z,86.07
2022-11-09T09:53:40.849Z,86.71
2022-11-09T09:54:39.721Z,87.32
2022-11-09T09:55:39.734Z,88.18
2022-11-09T09:56:39.734Z,88.48
2022-11-09T09:57:42.112Z,89.70
2022-11-09T09:58:39.728Z,89.54
2022-11-09T09:59:39.689Z,90.45
2022-11-09T10:00:39.721Z,90.66
2022-11-09T10:01:41.073Z,91.26
2022-11-09T10:02:39.681Z,91.71
2022-11-09T10:03:39.719Z,91.71
2022-11-09T10:04:39.722Z,92.22
2022-11-09T10:05:39.610Z,91.91
2022-11-09T10:06:39.852Z,92.32
2022-11-09T10:07:39.702Z,92.42
2022-11-09T10:08:39.623Z,92.22
2022-11-09T10:09:39.573Z,92.42
2022-11-09T10:10:39.533Z,92.32
2022-11-09T10:11:39.580Z,91.96
2022-11-09T10:12:39.679Z,92.47
2022-11-09T10:13:39.497Z,92.36
2022-11-09T10:14:39.525Z,92.67
2022-11-09T10:15:40.273Z,93.38
2022-11-09T10:16:39.626Z,93.59
2022-11-09T10:17:39.444Z,93.79
2022-11-09T10:18:39.655Z,93.18
2022-11-09T10:19:39.516Z,93.48
2022-11-09T10:20:39.402Z,93.18
2022-11-09T10:21:39.525Z,93.48
2022-11-09T10:22:39.389Z,93.38
2022-11-09T10:23:41.646Z,93.48
2022-11-09T10:24:48.597Z,93.68
2022-11-09T10:26:40.343Z,93.99
2022-11-09T10:27:39.308Z,94.20
2022-11-09T10:29:09.246Z,93.38
2022-11-09T10:29:40.598Z,93.28
2022-11-09T10:30:39.308Z,92.77
2022-11-09T10:31:40.267Z,92.67
2022-11-09T10:32:39.559Z,93.54
2022-11-09T10:33:39.270Z,92.63
2022-11-09T10:34:40.161Z,93.24
2022-11-09T10:35:39.418Z,93.33
2022-11-09T10:36:39.921Z,93.24
2022-11-09T10:37:39.851Z,92.93
2022-11-09T10:38:39.462Z,92.93
2022-11-09T10:39:39.128Z,93.24
2022-11-09T10:40:39.384Z,93.13
2022-11-09T10:41:39.108Z,93.44
2022-11-09T10:42:39.093Z,93.54
2022-11-09T10:43:39.147Z,94.05
2022-11-09T10:44:39.103Z,93.99
2022-11-09T10:45:39.280Z,94.40
2022-11-09T10:46:39.363Z,94.70
2022-11-09T10:47:39.406Z,94.09
2022-11-09T10:48:39.145Z,94.50
2022-11-09T10:49:39.031Z,94.90
2022-11-09T10:50:39.042Z,95.21
2022-11-09T10:51:39.185Z,94.96
2022-11-09T10:52:41.851Z,94.96
2022-11-09T10:53:39.980Z,94.96
2022-11-09T10:54:39.830Z,95.26
2022-11-09T10:55:38.924Z,95.37
2022-11-09T10:57:00.607Z,94.76
2022-11-09T10:57:39.941Z,94.76
2022-11-09T10:58:39.899Z,94.66
2022-11-09T10:59:38.995Z,94.96
2022-11-09T11:00:38.914Z,95.17
2022-11-09T11:01:39.109Z,95.17
2022-11-09T11:02:38.989Z,94.45
2022-11-09T11:03:38.822Z,94.41
2022-11-09T11:04:38.838Z,94.21
2022-11-09T11:05:38.803Z,94.31
2022-11-09T11:06:38.916Z,94.41
2022-11-09T11:07:38.809Z,93.70
2022-11-09T11:08:38.790Z,93.65
2022-11-09T11:09:39.698Z,93.45
2022-11-09T11:10:38.750Z,93.40
2022-11-09T11:11:38.812Z,93.49
2022-11-09T11:12:38.719Z,94.31
2022-11-09T11:13:38.756Z,94.21
2022-11-09T11:14:38.679Z,94.10
2022-11-09T11:15:38.809Z,93.80
2022-11-09T11:16:38.707Z,94.00
2022-11-09T11:17:38.813Z,94.51
2022-11-09T11:18:38.813Z,94.10
2022-11-09T11:19:38.623Z,93.54
2022-11-09T11:20:38.643Z,94.15
2022-11-09T11:21:38.745Z,94.50
2022-11-09T11:22:38.670Z,94.29
2022-11-09T11:23:38.604Z,94.20
2022-11-09T11:24:38.652Z,93.38
2022-11-09T11:25:38.682Z,93.59
2022-11-09T11:26:38.565Z,93.28
2022-11-09T11:27:38.625Z,93.07
2022-11-09T11:28:38.651Z,93.28
2022-11-09T11:29:38.705Z,93.48
2022-11-09T11:30:38.493Z,93.48
2022-11-09T11:31:39.474Z,93.79
2022-11-09T11:32:39.537Z,93.18
2022-11-09T11:33:38.433Z,93.07
2022-11-09T11:34:59.019Z,93.48
2022-11-09T11:35:39.442Z,93.68
2022-11-09T11:36:38.446Z,93.28
2022-11-09T11:37:38.411Z,93.07
2022-11-09T11:38:38.537Z,93.28
2022-11-09T11:39:38.598Z,93.18
2022-11-09T11:40:39.278Z,92.67
2022-11-09T11:41:38.650Z,92.67
2022-11-09T11:42:38.321Z,93.03
2022-11-09T11:43:38.380Z,92.93
2022-11-09T11:44:38.278Z,92.83
2022-11-09T11:45:41.508Z,92.48
2022-11-09T11:46:38.359Z,92.58
2022-11-09T11:47:38.269Z,92.94
2022-11-09T11:48:38.644Z,92.94
2022-11-09T11:49:38.893Z,91.32
2022-11-09T11:50:38.293Z,92.40
2022-11-09T11:51:39.250Z,92.49
2022-11-09T11:52:39.149Z,92.40
2022-11-09T11:53:42.220Z,92.19
2022-11-09T11:54:39.468Z,91.78
2022-11-09T11:55:38.142Z,91.99
2022-11-09T11:56:38.182Z,91.17
2022-11-09T11:57:38.382Z,91.17
2022-11-09T11:58:38.185Z,91.02
2022-11-09T11:59:38.166Z,91.73
2022-11-09T12:00:38.894Z,92.03
2022-11-09T12:01:38.302Z,92.13
2022-11-09T12:02:38.576Z,91.83
2022-11-09T12:03:38.565Z,91.83
2022-11-09T12:04:38.097Z,91.26
2022-11-09T12:05:38.168Z,91.36
2022-11-09T12:06:39.642Z,90.55
2022-11-09T12:07:38.111Z,90.55
2022-11-09T12:08:37.981Z,90.25
2022-11-09T12:09:37.983Z,90.66
2022-11-09T12:10:38.963Z,90.19
2022-11-09T12:11:37.981Z,90.19
2022-11-09T12:12:38.002Z,91.10
2022-11-09T12:13:38.144Z,91.41
2022-11-09T12:14:37.959Z,90.19
2022-11-09T12:15:38.007Z,90.86
2022-11-09T12:16:38.895Z,90.96
2022-11-09T12:17:37.928Z,91.16
2022-11-09T12:18:37.868Z,90.35
2022-11-09T12:19:38.601Z,90.66
2022-11-09T12:20:37.839Z,90.66
2022-11-09T12:21:37.910Z,90.55
2022-11-09T12:22:37.794Z,90.75
2022-11-09T12:23:37.807Z,91.22
2022-11-09T12:24:37.803Z,91.32
2022-11-09T12:25:37.840Z,91.52
2022-11-09T12:26:37.741Z,91.02
2022-11-09T12:27:38.533Z,91.02
2022-11-09T12:28:37.840Z,90.81
2022-11-09T12:29:37.721Z,89.90
2022-11-09T12:30:37.813Z,90.31
2022-11-09T12:31:37.822Z,89.90
2022-11-09T12:32:37.753Z,90.81
2022-11-09T12:33:42.834Z,90.31
2022-11-09T12:34:38.680Z,90.20
2022-11-09T12:35:38.653Z,90.61
2022-11-09T12:36:37.794Z,90.61
2022-11-09T12:37:38.416Z,90.41
2022-11-09T12:38:37.785Z,90.41
2022-11-09T12:39:37.821Z,90.41
2022-11-09T12:40:37.576Z,90.92
2022-11-09T12:41:37.616Z,90.55
2022-11-09T12:42:37.546Z,91.06
2022-11-09T12:43:38.356Z,91.56
2022-11-09T12:44:37.531Z,91.06
2022-11-09T12:45:37.529Z,90.35
2022-11-09T12:46:37.553Z,90.55
2022-11-09T12:47:37.486Z,90.45
2022-11-09T12:48:37.489Z,89.94
2022-11-09T12:49:37.652Z,89.90
2022-11-09T12:50:37.474Z,90.11
2022-11-09T12:51:38.389Z,89.09
2022-11-09T12:52:37.400Z,89.70
2022-11-09T12:53:37.440Z,89.59
2022-11-09T12:54:37.415Z,89.59